DLH963 EGPH-EDDF
Flight info
| Callsign | DLH963 |
|---|---|
| Flight time | 1h 36m |
| Altitude | 39000 |
| Route | TLA Y96 HAVEN DCT OTBUN DCT AGPED DCT GODOS DCT AMGOD DCT SOGPO DCT DIXAT DIXAT1A |
| Aircraft | A320/M-SDE3FGHIRWY/LB1 |
Departure
| Time | 2026-05-04 15:08 |
|---|---|
| Airport | Edinburgh Airport (EGPH) |
Arrival
| Time | 2026-05-04 16:45 |
|---|---|
| Airport | Frankfurt Main Airport (EDDF) |
| Time | Latitude | Longitude | Altitude | Speed | Heading |
|---|---|---|---|---|---|
| 2026-05-04 14:45 | 55.94703 | -3.36618 | 117 ft | 0 kts | 89° |
| 2026-05-04 15:00 | 55.94703 | -3.36648 | 113 ft | 4 kts | 87° |
| 2026-05-04 15:01 | 55.94690 | -3.36732 | 114 ft | 4 kts | 25° |
| 2026-05-04 15:01 | 55.94682 | -3.36738 | 115 ft | 0 kts | 359° |
| 2026-05-04 15:03 | 55.94683 | -3.36738 | 115 ft | 1 kts | 359° |
| 2026-05-04 15:03 | 55.94717 | -3.36738 | 114 ft | 8 kts | 0° |
| 2026-05-04 15:04 | 55.94774 | -3.36765 | 114 ft | 9 kts | 337° |
| 2026-05-04 15:04 | 55.94832 | -3.36778 | 115 ft | 8 kts | 359° |
| 2026-05-04 15:04 | 55.94884 | -3.36793 | 116 ft | 8 kts | 335° |
| 2026-05-04 15:04 | 55.94940 | -3.36822 | 114 ft | 10 kts | 16° |
| 2026-05-04 15:05 | 55.94995 | -3.36691 | 113 ft | 17 kts | 59° |
| 2026-05-04 15:05 | 55.95053 | -3.36522 | 114 ft | 15 kts | 59° |
| 2026-05-04 15:05 | 55.95105 | -3.36367 | 113 ft | 14 kts | 59° |
| 2026-05-04 15:05 | 55.95154 | -3.36222 | 114 ft | 14 kts | 59° |
| 2026-05-04 15:06 | 55.95207 | -3.36065 | 112 ft | 16 kts | 59° |
| 2026-05-04 15:06 | 55.95268 | -3.35887 | 111 ft | 16 kts | 58° |
| 2026-05-04 15:06 | 55.95324 | -3.35723 | 112 ft | 15 kts | 58° |
| 2026-05-04 15:07 | 55.95421 | -3.35433 | 114 ft | 12 kts | 56° |
| 2026-05-04 15:07 | 55.95489 | -3.35427 | 115 ft | 11 kts | 329° |
| 2026-05-04 15:07 | 55.95560 | -3.35511 | 112 ft | 14 kts | 313° |
| 2026-05-04 15:07 | 55.95534 | -3.35675 | 113 ft | 16 kts | 239° |
| 2026-05-04 15:08 | 55.95410 | -3.36044 | 111 ft | 68 kts | 239° |
| 2026-05-04 15:08 | 55.95048 | -3.37109 | 112 ft | 129 kts | 239° |
| 2026-05-04 15:08 | 55.94516 | -3.38651 | 492 ft | 145 kts | 242° |
| 2026-05-04 15:08 | 55.93989 | -3.40151 | 1318 ft | 143 kts | 244° |
| 2026-05-04 15:09 | 55.93428 | -3.41777 | 1724 ft | 165 kts | 244° |
| 2026-05-04 15:09 | 55.92797 | -3.43641 | 2105 ft | 187 kts | 243° |
| 2026-05-04 15:09 | 55.92085 | -3.45734 | 2509 ft | 206 kts | 243° |
| 2026-05-04 15:10 | 55.89825 | -3.49613 | 3648 ft | 258 kts | 198° |
| 2026-05-04 15:10 | 55.88000 | -3.49470 | 4587 ft | 274 kts | 163° |
| 2026-05-04 15:10 | 55.84679 | -3.45968 | 6578 ft | 282 kts | 148° |
| 2026-05-04 15:11 | 55.83063 | -3.43925 | 7498 ft | 286 kts | 147° |
| 2026-05-04 15:11 | 55.81441 | -3.41855 | 8393 ft | 291 kts | 148° |
| 2026-05-04 15:11 | 55.79765 | -3.39746 | 9270 ft | 297 kts | 148° |
| 2026-05-04 15:11 | 55.78060 | -3.37636 | 10141 ft | 301 kts | 148° |
| 2026-05-04 15:12 | 55.76299 | -3.35494 | 10553 ft | 322 kts | 149° |
| 2026-05-04 15:12 | 55.74392 | -3.33203 | 11039 ft | 338 kts | 149° |
| 2026-05-04 15:12 | 55.72422 | -3.30845 | 11769 ft | 344 kts | 148° |
| 2026-05-04 15:12 | 55.70432 | -3.28466 | 12583 ft | 349 kts | 148° |
| 2026-05-04 15:13 | 55.68397 | -3.26035 | 13377 ft | 354 kts | 148° |
| 2026-05-04 15:13 | 55.66346 | -3.23590 | 14114 ft | 358 kts | 148° |
| 2026-05-04 15:13 | 55.64261 | -3.21108 | 14790 ft | 362 kts | 148° |
| 2026-05-04 15:13 | 55.62188 | -3.18640 | 15457 ft | 366 kts | 148° |
| 2026-05-04 15:14 | 55.60039 | -3.16086 | 16148 ft | 369 kts | 148° |
| 2026-05-04 15:14 | 55.57955 | -3.13616 | 16797 ft | 374 kts | 148° |
| 2026-05-04 15:14 | 55.55758 | -3.11018 | 17494 ft | 377 kts | 148° |
| 2026-05-04 15:14 | 55.53572 | -3.08442 | 18139 ft | 381 kts | 149° |
| 2026-05-04 15:15 | 55.51361 | -3.05838 | 18727 ft | 385 kts | 148° |
| 2026-05-04 15:15 | 55.49123 | -3.03200 | 19309 ft | 388 kts | 148° |
| 2026-05-04 15:15 | 55.47007 | -3.00213 | 19896 ft | 392 kts | 137° |
| 2026-05-04 15:16 | 55.43793 | -2.92371 | 21060 ft | 400 kts | 119° |
| 2026-05-04 15:16 | 55.42437 | -2.88078 | 21641 ft | 402 kts | 119° |
| 2026-05-04 15:16 | 55.40160 | -2.80914 | 22586 ft | 405 kts | 120° |
| 2026-05-04 15:17 | 55.38770 | -2.76564 | 23124 ft | 409 kts | 120° |
| 2026-05-04 15:17 | 55.35957 | -2.67790 | 24048 ft | 416 kts | 120° |
| 2026-05-04 15:17 | 55.34530 | -2.63349 | 24507 ft | 418 kts | 120° |
| 2026-05-04 15:18 | 55.33093 | -2.58894 | 24967 ft | 420 kts | 120° |
| 2026-05-04 15:18 | 55.31649 | -2.54428 | 25394 ft | 423 kts | 120° |
| 2026-05-04 15:18 | 55.30196 | -2.49943 | 25809 ft | 426 kts | 120° |
| 2026-05-04 15:19 | 55.27238 | -2.40831 | 26623 ft | 431 kts | 119° |
| 2026-05-04 15:19 | 55.25750 | -2.36254 | 27033 ft | 434 kts | 119° |
| 2026-05-04 15:19 | 55.22742 | -2.27008 | 27868 ft | 438 kts | 118° |
| 2026-05-04 15:20 | 55.21232 | -2.22372 | 28253 ft | 441 kts | 118° |
| 2026-05-04 15:20 | 55.19710 | -2.17710 | 28681 ft | 442 kts | 118° |
| 2026-05-04 15:20 | 55.18176 | -2.13030 | 29099 ft | 444 kts | 119° |
| 2026-05-04 15:20 | 55.16661 | -2.08426 | 29494 ft | 446 kts | 118° |
| 2026-05-04 15:21 | 55.15076 | -2.03624 | 29869 ft | 448 kts | 119° |
| 2026-05-04 15:21 | 55.13537 | -1.98970 | 30187 ft | 451 kts | 119° |
| 2026-05-04 15:21 | 55.10394 | -1.89333 | 30804 ft | 455 kts | 118° |
| 2026-05-04 15:22 | 55.08871 | -1.84481 | 31125 ft | 456 kts | 117° |
| 2026-05-04 15:22 | 55.07379 | -1.79660 | 31413 ft | 458 kts | 117° |
| 2026-05-04 15:22 | 55.04328 | -1.69787 | 32106 ft | 459 kts | 117° |
| 2026-05-04 15:23 | 55.02800 | -1.64895 | 32518 ft | 457 kts | 118° |
| 2026-05-04 15:23 | 55.01299 | -1.60125 | 32980 ft | 455 kts | 118° |
| 2026-05-04 15:23 | 54.99771 | -1.55299 | 33400 ft | 454 kts | 118° |
| 2026-05-04 15:23 | 54.98243 | -1.50495 | 33873 ft | 451 kts | 118° |
| 2026-05-04 15:24 | 54.95222 | -1.41008 | 34654 ft | 447 kts | 118° |
| 2026-05-04 15:24 | 54.92212 | -1.31567 | 35220 ft | 447 kts | 118° |
| 2026-05-04 15:25 | 54.90678 | -1.26762 | 35457 ft | 449 kts | 118° |
| 2026-05-04 15:25 | 54.89183 | -1.22091 | 35745 ft | 448 kts | 118° |
| 2026-05-04 15:25 | 54.87650 | -1.17305 | 36057 ft | 447 kts | 118° |
| 2026-05-04 15:26 | 54.84634 | -1.07920 | 36549 ft | 448 kts | 119° |
| 2026-05-04 15:26 | 54.83107 | -1.03187 | 36723 ft | 450 kts | 119° |
| 2026-05-04 15:26 | 54.80047 | -0.93745 | 37286 ft | 448 kts | 119° |
| 2026-05-04 15:27 | 54.78521 | -0.89052 | 37525 ft | 448 kts | 119° |
| 2026-05-04 15:27 | 54.75450 | -0.79628 | 37940 ft | 450 kts | 120° |
| 2026-05-04 15:28 | 54.72382 | -0.70251 | 38515 ft | 446 kts | 120° |
| 2026-05-04 15:28 | 54.70847 | -0.65570 | 38749 ft | 446 kts | 120° |
| 2026-05-04 15:28 | 54.67780 | -0.56256 | 39015 ft | 447 kts | 120° |
| 2026-05-04 15:29 | 54.66236 | -0.51580 | 39038 ft | 448 kts | 120° |
| 2026-05-04 15:30 | 54.55394 | -0.18968 | 39045 ft | 448 kts | 120° |
| 2026-05-04 15:31 | 54.50719 | -0.05049 | 39049 ft | 448 kts | 120° |
| 2026-05-04 15:32 | 54.42891 | 0.18103 | 39069 ft | 448 kts | 121° |
| 2026-05-04 15:34 | 54.35053 | 0.41075 | 39071 ft | 447 kts | 121° |
| 2026-05-04 15:34 | 54.30308 | 0.54843 | 39077 ft | 447 kts | 121° |
| 2026-05-04 15:35 | 54.25562 | 0.68572 | 39077 ft | 448 kts | 121° |
| 2026-05-04 15:36 | 54.20787 | 0.82307 | 39065 ft | 447 kts | 122° |
| 2026-05-04 15:36 | 54.17604 | 0.91415 | 39066 ft | 447 kts | 122° |
| 2026-05-04 15:37 | 54.14396 | 1.00531 | 39067 ft | 448 kts | 122° |
| 2026-05-04 15:37 | 54.11189 | 1.09640 | 39064 ft | 448 kts | 122° |
| 2026-05-04 15:38 | 54.07981 | 1.18730 | 39066 ft | 448 kts | 122° |
| 2026-05-04 15:38 | 54.04759 | 1.27824 | 39064 ft | 449 kts | 122° |
| 2026-05-04 15:39 | 54.01525 | 1.36905 | 39069 ft | 449 kts | 122° |
| 2026-05-04 15:40 | 53.96662 | 1.50506 | 39068 ft | 449 kts | 122° |
| 2026-05-04 15:40 | 53.93430 | 1.59505 | 39069 ft | 449 kts | 123° |
| 2026-05-04 15:41 | 53.90174 | 1.68527 | 39064 ft | 448 kts | 123° |
| 2026-05-04 15:41 | 53.86916 | 1.77530 | 39070 ft | 448 kts | 123° |
| 2026-05-04 15:42 | 53.83647 | 1.86533 | 39069 ft | 448 kts | 123° |
| 2026-05-04 15:42 | 53.80379 | 1.95500 | 39062 ft | 448 kts | 123° |
| 2026-05-04 15:43 | 53.77100 | 2.04459 | 39063 ft | 448 kts | 123° |
| 2026-05-04 15:43 | 53.73806 | 2.13423 | 39066 ft | 449 kts | 123° |
| 2026-05-04 15:44 | 53.70511 | 2.22371 | 39061 ft | 448 kts | 123° |
| 2026-05-04 15:44 | 53.67218 | 2.31290 | 39064 ft | 447 kts | 123° |
| 2026-05-04 15:45 | 53.63913 | 2.40197 | 39062 ft | 447 kts | 124° |
| 2026-05-04 15:45 | 53.60616 | 2.49040 | 39065 ft | 447 kts | 124° |
| 2026-05-04 15:46 | 53.57310 | 2.57881 | 39065 ft | 446 kts | 124° |
| 2026-05-04 15:46 | 53.53996 | 2.66723 | 39060 ft | 446 kts | 124° |
| 2026-05-04 15:47 | 53.50682 | 2.75537 | 39058 ft | 446 kts | 124° |
| 2026-05-04 15:47 | 53.47380 | 2.84286 | 39057 ft | 447 kts | 124° |
| 2026-05-04 15:48 | 53.44039 | 2.93077 | 39055 ft | 447 kts | 124° |
| 2026-05-04 15:48 | 53.39028 | 3.06246 | 39054 ft | 447 kts | 124° |
| 2026-05-04 15:49 | 53.35681 | 3.14995 | 39048 ft | 447 kts | 124° |
| 2026-05-04 15:49 | 53.32318 | 3.23753 | 39049 ft | 447 kts | 124° |
| 2026-05-04 15:50 | 53.28948 | 3.32504 | 39057 ft | 447 kts | 125° |
| 2026-05-04 15:50 | 53.25333 | 3.40916 | 39058 ft | 444 kts | 136° |
| 2026-05-04 15:51 | 53.20491 | 3.47129 | 39057 ft | 438 kts | 153° |
| 2026-05-04 15:51 | 53.15168 | 3.52089 | 39054 ft | 439 kts | 153° |
| 2026-05-04 15:52 | 53.09840 | 3.57066 | 39050 ft | 439 kts | 153° |
| 2026-05-04 15:52 | 53.04510 | 3.62035 | 39058 ft | 439 kts | 153° |
| 2026-05-04 15:53 | 52.99293 | 3.67276 | 39051 ft | 441 kts | 143° |
| 2026-05-04 15:53 | 52.95186 | 3.74778 | 39039 ft | 447 kts | 124° |
| 2026-05-04 15:54 | 52.91898 | 3.83601 | 39042 ft | 447 kts | 124° |
| 2026-05-04 15:54 | 52.88603 | 3.92329 | 39029 ft | 447 kts | 124° |
| 2026-05-04 15:55 | 52.85294 | 4.01057 | 39026 ft | 447 kts | 124° |
| 2026-05-04 15:55 | 52.81989 | 4.09774 | 39000 ft | 448 kts | 124° |
| 2026-05-04 15:56 | 52.78676 | 4.18485 | 38997 ft | 449 kts | 124° |
| 2026-05-04 15:56 | 52.75349 | 4.27206 | 39000 ft | 449 kts | 124° |
| 2026-05-04 15:57 | 52.72014 | 4.35920 | 39011 ft | 449 kts | 125° |
| 2026-05-04 15:57 | 52.68669 | 4.44617 | 39008 ft | 449 kts | 125° |
| 2026-05-04 15:58 | 52.65313 | 4.53290 | 38995 ft | 449 kts | 126° |
| 2026-05-04 15:58 | 52.61974 | 4.61911 | 39004 ft | 449 kts | 126° |
| 2026-05-04 15:59 | 52.58618 | 4.70568 | 38997 ft | 449 kts | 126° |
| 2026-05-04 15:59 | 52.55233 | 4.79248 | 38998 ft | 449 kts | 126° |
| 2026-05-04 16:00 | 52.51855 | 4.87890 | 38995 ft | 449 kts | 126° |
| 2026-05-04 16:00 | 52.48472 | 4.96507 | 38995 ft | 449 kts | 126° |
| 2026-05-04 16:01 | 52.45094 | 5.05099 | 38983 ft | 448 kts | 126° |
| 2026-05-04 16:01 | 52.41708 | 5.13687 | 39002 ft | 448 kts | 126° |
| 2026-05-04 16:02 | 52.38320 | 5.22229 | 39011 ft | 447 kts | 127° |
| 2026-05-04 16:03 | 52.33257 | 5.34921 | 39018 ft | 445 kts | 127° |
| 2026-05-04 16:03 | 52.29970 | 5.43144 | 39017 ft | 445 kts | 127° |
| 2026-05-04 16:04 | 52.26596 | 5.51570 | 39006 ft | 444 kts | 127° |
| 2026-05-04 16:04 | 52.21489 | 5.64239 | 38996 ft | 445 kts | 127° |
| 2026-05-04 16:05 | 52.18641 | 5.71307 | 38984 ft | 444 kts | 127° |
| 2026-05-04 16:06 | 52.13546 | 5.83861 | 38964 ft | 443 kts | 127° |
| 2026-05-04 16:07 | 52.06731 | 6.00535 | 38964 ft | 443 kts | 127° |
| 2026-05-04 16:08 | 51.99895 | 6.17185 | 38961 ft | 443 kts | 128° |
| 2026-05-04 16:08 | 51.94067 | 6.28560 | 38965 ft | 433 kts | 145° |
| 2026-05-04 16:09 | 51.89407 | 6.34628 | 38961 ft | 434 kts | 145° |
| 2026-05-04 16:10 | 51.80013 | 6.46894 | 38968 ft | 435 kts | 145° |
| 2026-05-04 16:11 | 51.70581 | 6.59119 | 38973 ft | 435 kts | 145° |
| 2026-05-04 16:12 | 51.63367 | 6.68428 | 37977 ft | 452 kts | 146° |
| 2026-05-04 16:12 | 51.56129 | 6.77741 | 36560 ft | 441 kts | 146° |
| 2026-05-04 16:13 | 51.51279 | 6.83945 | 35037 ft | 445 kts | 147° |
| 2026-05-04 16:13 | 51.46477 | 6.90074 | 33969 ft | 436 kts | 147° |
| 2026-05-04 16:14 | 51.41816 | 6.96010 | 32896 ft | 424 kts | 147° |
| 2026-05-04 16:14 | 51.37292 | 7.01770 | 31893 ft | 413 kts | 147° |
| 2026-05-04 16:15 | 51.30651 | 7.10180 | 30466 ft | 399 kts | 146° |
| 2026-05-04 16:16 | 51.26270 | 7.15391 | 29505 ft | 385 kts | 154° |
| 2026-05-04 16:16 | 51.19267 | 7.21016 | 28250 ft | 365 kts | 158° |
| 2026-05-04 16:17 | 51.14922 | 7.24461 | 27457 ft | 356 kts | 158° |
| 2026-05-04 16:18 | 51.08364 | 7.29714 | 26183 ft | 348 kts | 156° |
| 2026-05-04 16:18 | 51.06193 | 7.31506 | 25756 ft | 346 kts | 156° |
| 2026-05-04 16:19 | 50.99804 | 7.36806 | 24399 ft | 344 kts | 156° |
| 2026-05-04 16:19 | 50.95580 | 7.40289 | 23464 ft | 345 kts | 156° |
| 2026-05-04 16:20 | 50.89276 | 7.45462 | 22073 ft | 338 kts | 156° |
| 2026-05-04 16:20 | 50.85116 | 7.48865 | 21192 ft | 334 kts | 156° |
| 2026-05-04 16:21 | 50.78983 | 7.53862 | 19922 ft | 329 kts | 155° |
| 2026-05-04 16:22 | 50.74924 | 7.57157 | 19086 ft | 331 kts | 155° |
| 2026-05-04 16:22 | 50.68807 | 7.62131 | 17784 ft | 329 kts | 155° |
| 2026-05-04 16:23 | 50.62824 | 7.66977 | 16610 ft | 319 kts | 155° |
| 2026-05-04 16:24 | 50.55025 | 7.73266 | 15130 ft | 310 kts | 155° |
| 2026-05-04 16:25 | 50.51248 | 7.76305 | 14441 ft | 307 kts | 155° |
| 2026-05-04 16:26 | 50.43756 | 7.82353 | 13025 ft | 299 kts | 150° |
| 2026-05-04 16:26 | 50.38908 | 7.88255 | 12169 ft | 290 kts | 144° |
| 2026-05-04 16:27 | 50.35754 | 7.92157 | 11634 ft | 288 kts | 145° |
| 2026-05-04 16:28 | 50.31066 | 7.97940 | 10811 ft | 284 kts | 146° |
| 2026-05-04 16:28 | 50.26487 | 8.03680 | 10048 ft | 283 kts | 139° |
| 2026-05-04 16:29 | 50.21625 | 8.13373 | 9972 ft | 287 kts | 132° |
| 2026-05-04 16:30 | 50.17974 | 8.20760 | 9982 ft | 287 kts | 132° |
| 2026-05-04 16:31 | 50.15529 | 8.25685 | 9981 ft | 287 kts | 132° |
| 2026-05-04 16:31 | 50.11893 | 8.33024 | 9964 ft | 284 kts | 131° |
| 2026-05-04 16:32 | 50.10737 | 8.41967 | 9187 ft | 300 kts | 76° |
| 2026-05-04 16:33 | 50.12192 | 8.48033 | 8457 ft | 296 kts | 72° |
| 2026-05-04 16:33 | 50.13623 | 8.53975 | 7714 ft | 292 kts | 72° |
| 2026-05-04 16:34 | 50.15020 | 8.59844 | 6955 ft | 288 kts | 72° |
| 2026-05-04 16:34 | 50.15708 | 8.62749 | 6581 ft | 286 kts | 72° |
| 2026-05-04 16:35 | 50.17764 | 8.71371 | 5377 ft | 280 kts | 71° |
| 2026-05-04 16:35 | 50.19771 | 8.79864 | 5014 ft | 278 kts | 71° |
| 2026-05-04 16:36 | 50.20439 | 8.82708 | 5014 ft | 278 kts | 71° |
| 2026-05-04 16:36 | 50.21701 | 8.88061 | 5012 ft | 249 kts | 71° |
| 2026-05-04 16:37 | 50.22838 | 8.93152 | 5011 ft | 244 kts | 83° |
| 2026-05-04 16:37 | 50.22682 | 8.95695 | 5018 ft | 238 kts | 116° |
| 2026-05-04 16:37 | 50.20262 | 8.98535 | 5017 ft | 227 kts | 176° |
| 2026-05-04 16:38 | 50.17099 | 8.98420 | 5013 ft | 227 kts | 192° |
| 2026-05-04 16:39 | 50.14018 | 8.93263 | 5016 ft | 230 kts | 248° |
| 2026-05-04 16:39 | 50.13027 | 8.89034 | 5013 ft | 227 kts | 248° |
| 2026-05-04 16:40 | 50.11990 | 8.84622 | 4772 ft | 213 kts | 248° |
| 2026-05-04 16:40 | 50.10976 | 8.80317 | 4184 ft | 209 kts | 249° |
| 2026-05-04 16:41 | 50.10007 | 8.76217 | 3616 ft | 191 kts | 250° |
| 2026-05-04 16:41 | 50.08715 | 8.70753 | 2845 ft | 176 kts | 252° |
| 2026-05-04 16:42 | 50.07451 | 8.65427 | 2098 ft | 171 kts | 252° |
| 2026-05-04 16:43 | 50.06714 | 8.62332 | 1671 ft | 138 kts | 252° |
| 2026-05-04 16:43 | 50.06064 | 8.59608 | 1251 ft | 131 kts | 251° |
| 2026-05-04 16:43 | 50.05739 | 8.58247 | 1076 ft | 136 kts | 251° |
| 2026-05-04 16:44 | 50.04369 | 8.52491 | 354 ft | 128 kts | 253° |
| 2026-05-04 16:45 | 50.03980 | 8.50850 | 324 ft | 41 kts | 249° |
| 2026-05-04 16:46 | 50.03703 | 8.50202 | 319 ft | 8 kts | 216° |
| 2026-05-04 16:46 | 50.03627 | 8.50279 | 325 ft | 17 kts | 77° |
| 2026-05-04 16:47 | 50.03697 | 8.50572 | 327 ft | 12 kts | 70° |
| 2026-05-04 16:47 | 50.03737 | 8.50737 | 328 ft | 6 kts | 69° |
| 2026-05-04 16:48 | 50.03783 | 8.50933 | 333 ft | 10 kts | 70° |
| 2026-05-04 16:48 | 50.03814 | 8.51065 | 331 ft | 14 kts | 69° |
| 2026-05-04 16:49 | 50.03890 | 8.51378 | 332 ft | 18 kts | 70° |
| 2026-05-04 16:49 | 50.03982 | 8.51765 | 335 ft | 20 kts | 69° |
| 2026-05-04 16:50 | 50.04085 | 8.52195 | 351 ft | 22 kts | 69° |
| 2026-05-04 16:50 | 50.04195 | 8.52652 | 351 ft | 23 kts | 70° |
| 2026-05-04 16:51 | 50.04316 | 8.53160 | 366 ft | 26 kts | 69° |
| 2026-05-04 16:51 | 50.04378 | 8.53415 | 372 ft | 23 kts | 69° |
| 2026-05-04 16:51 | 50.04422 | 8.53927 | 375 ft | 26 kts | 84° |
| 2026-05-04 16:52 | 50.04452 | 8.54374 | 373 ft | 17 kts | 84° |
| 2026-05-04 16:52 | 50.04437 | 8.54568 | 367 ft | 20 kts | 109° |
| 2026-05-04 16:53 | 50.04205 | 8.54833 | 357 ft | 24 kts | 160° |
| 2026-05-04 16:53 | 50.03849 | 8.55074 | 349 ft | 14 kts | 108° |
| 2026-05-04 16:54 | 50.03882 | 8.55252 | 355 ft | 22 kts | 70° |
| 2026-05-04 16:55 | 50.04152 | 8.56383 | 358 ft | 28 kts | 70° |
| 2026-05-04 16:55 | 50.04264 | 8.56850 | 362 ft | 19 kts | 70° |
| 2026-05-04 16:56 | 50.04354 | 8.57229 | 361 ft | 17 kts | 69° |
| 2026-05-04 16:56 | 50.04453 | 8.57643 | 366 ft | 10 kts | 70° |
| 2026-05-04 16:57 | 50.04485 | 8.57777 | 365 ft | 16 kts | 70° |
| 2026-05-04 16:57 | 50.04571 | 8.58132 | 365 ft | 19 kts | 70° |
| 2026-05-04 16:58 | 50.04658 | 8.58503 | 373 ft | 9 kts | 70° |
| 2026-05-04 16:58 | 50.04687 | 8.58624 | 372 ft | 17 kts | 69° |
| 2026-05-04 16:59 | 50.04791 | 8.59033 | 370 ft | 21 kts | 70° |
| 2026-05-04 17:00 | 50.04920 | 8.59186 | 365 ft | 0 kts | 340° |